createdAt,value
2022-10-02T00:02:22.454Z,11.00
2022-10-02T00:05:11.831Z,10.90
2022-10-02T00:07:50.228Z,10.80
2022-10-02T00:10:25.783Z,10.80
2022-10-02T00:12:58.369Z,10.90
2022-10-02T00:15:31.239Z,10.80
2022-10-02T00:18:15.193Z,10.90
2022-10-02T00:20:49.090Z,10.90
2022-10-02T00:23:25.136Z,10.90
2022-10-02T00:25:55.904Z,10.90
2022-10-02T00:28:39.167Z,11.00
2022-10-02T00:31:21.423Z,11.00
2022-10-02T00:34:27.018Z,10.90
2022-10-02T00:37:07.236Z,10.80
2022-10-02T00:40:12.895Z,10.70
2022-10-02T00:42:52.266Z,10.80
2022-10-02T00:45:32.220Z,10.80
2022-10-02T00:48:32.407Z,10.60
2022-10-02T00:51:27.604Z,10.50
2022-10-02T00:53:54.498Z,10.70
2022-10-02T00:56:46.133Z,10.70
2022-10-02T00:59:25.391Z,10.70
2022-10-02T01:02:01.670Z,10.50
2022-10-02T01:04:37.772Z,10.60
2022-10-02T01:07:07.342Z,10.80
2022-10-02T01:09:34.509Z,10.80
2022-10-02T01:12:01.974Z,10.80
2022-10-02T01:14:37.227Z,10.80
2022-10-02T01:17:07.361Z,10.90
2022-10-02T01:19:42.544Z,10.90
2022-10-02T01:22:39.759Z,10.80
2022-10-02T01:25:07.858Z,10.80
2022-10-02T01:27:39.126Z,10.80
2022-10-02T01:30:08.164Z,10.90
2022-10-02T01:32:40.718Z,10.90
2022-10-02T01:35:08.863Z,11.00
2022-10-02T01:37:39.436Z,10.90
2022-10-02T01:40:09.820Z,11.00
2022-10-02T01:42:38.951Z,11.10
2022-10-02T01:45:08.482Z,11.10
2022-10-02T01:48:01.295Z,11.10
2022-10-02T01:50:45.207Z,11.20
2022-10-02T01:53:45.420Z,11.30
2022-10-02T01:56:23.517Z,11.30
2022-10-02T01:59:08.062Z,11.30
2022-10-02T02:01:42.642Z,11.30
2022-10-02T02:04:20.303Z,11.40
2022-10-02T02:06:57.219Z,11.40
2022-10-02T02:10:03.268Z,11.40
2022-10-02T02:12:43.431Z,11.50
2022-10-02T02:15:25.444Z,11.50
2022-10-02T02:18:10.355Z,11.50
2022-10-02T02:20:48.038Z,11.40
2022-10-02T02:23:20.805Z,11.40
2022-10-02T02:25:52.818Z,11.40
2022-10-02T02:28:23.230Z,11.40
2022-10-02T02:30:53.486Z,11.40
2022-10-02T02:33:43.819Z,11.50
2022-10-02T02:36:16.822Z,11.60
2022-10-02T02:38:48.412Z,11.60
2022-10-02T02:41:28.753Z,11.60
2022-10-02T02:44:04.350Z,11.70
2022-10-02T02:47:00.794Z,11.70
2022-10-02T02:49:32.045Z,11.70
2022-10-02T02:52:03.491Z,11.80
2022-10-02T02:54:37.462Z,11.80
2022-10-02T02:57:08.061Z,11.80
2022-10-02T02:59:38.728Z,11.80
2022-10-02T03:02:05.883Z,11.80
2022-10-02T03:18:00.818Z,11.90
2022-10-02T03:20:42.802Z,12.00
2022-10-02T03:25:59.381Z,11.90
2022-10-02T03:28:55.509Z,11.80
2022-10-02T03:33:53.849Z,11.90
2022-10-02T03:36:22.503Z,11.90
2022-10-02T03:39:12.657Z,11.90
2022-10-02T03:41:38.421Z,11.80
2022-10-02T03:46:32.909Z,11.90
2022-10-02T03:51:27.805Z,12.00
2022-10-02T03:56:42.562Z,11.80
2022-10-02T03:59:25.794Z,11.80
2022-10-02T04:01:55.655Z,11.70
2022-10-02T04:07:10.214Z,11.70
2022-10-02T04:12:33.045Z,11.70
2022-10-02T04:17:47.418Z,11.70
2022-10-02T04:20:26.506Z,11.70
2022-10-02T04:23:02.206Z,11.70
2022-10-02T04:25:34.675Z,11.70
2022-10-02T04:28:16.165Z,11.70
2022-10-02T04:30:43.451Z,11.70
2022-10-02T04:36:01.119Z,11.70
2022-10-02T04:38:41.989Z,11.70
2022-10-02T04:41:19.464Z,11.70
2022-10-02T04:43:49.142Z,11.80
2022-10-02T04:46:35.137Z,11.70
2022-10-02T04:49:29.994Z,11.70
2022-10-02T04:52:17.179Z,11.70
2022-10-02T04:55:01.996Z,11.70
2022-10-02T04:57:40.868Z,11.80
2022-10-02T05:03:22.765Z,11.80
2022-10-02T05:06:30.866Z,11.80
2022-10-02T05:09:19.219Z,11.80
2022-10-02T05:12:10.074Z,11.80
2022-10-02T05:14:51.995Z,11.80
2022-10-02T05:17:32.581Z,11.80
2022-10-02T05:20:12.714Z,11.80
2022-10-02T05:22:58.424Z,11.90
2022-10-02T05:25:50.231Z,11.80
2022-10-02T05:30:55.039Z,11.80
2022-10-02T05:33:48.088Z,11.80
2022-10-02T05:36:21.499Z,11.80
2022-10-02T05:38:51.419Z,11.80
2022-10-02T05:41:41.383Z,11.70
2022-10-02T05:47:05.610Z,11.80
2022-10-02T05:49:46.691Z,11.90
2022-10-02T05:52:39.179Z,11.80
2022-10-02T05:58:25.549Z,11.80
2022-10-02T06:04:11.279Z,11.80
2022-10-02T06:06:53.688Z,11.90
2022-10-02T06:09:23.375Z,11.90
2022-10-02T06:11:57.409Z,11.90
2022-10-02T06:15:09.248Z,12.10
2022-10-02T06:17:44.248Z,12.10
2022-10-02T06:20:20.871Z,12.10
2022-10-02T06:27:58.670Z,12.20
2022-10-02T06:30:26.603Z,12.20
2022-10-02T06:33:32.245Z,12.20
2022-10-02T06:38:29.640Z,12.20
2022-10-02T06:41:01.088Z,12.20
2022-10-02T06:44:17.077Z,12.20
2022-10-02T06:46:51.496Z,12.20
2022-10-02T06:49:48.656Z,12.40
2022-10-02T06:52:50.408Z,12.50
2022-10-02T06:55:35.276Z,12.50
2022-10-02T06:58:30.257Z,12.50
2022-10-02T07:01:12.655Z,12.60
2022-10-02T07:06:45.834Z,12.40
2022-10-02T07:12:09.769Z,12.60
2022-10-02T07:20:19.001Z,12.70
2022-10-02T07:23:07.793Z,12.60
2022-10-02T07:28:38.826Z,12.60
2022-10-02T07:31:30.452Z,12.60
2022-10-02T07:34:28.074Z,12.60
2022-10-02T07:37:05.089Z,12.80
2022-10-02T07:39:38.227Z,12.80
2022-10-02T07:42:28.952Z,12.80
2022-10-02T07:45:04.887Z,12.80
2022-10-02T07:52:54.562Z,12.90
2022-10-02T08:00:29.567Z,12.90
2022-10-02T08:05:31.243Z,12.90
2022-10-02T08:08:03.423Z,12.90
2022-10-02T08:10:41.355Z,12.90
2022-10-02T08:18:40.528Z,13.00
2022-10-02T08:21:15.479Z,13.00
2022-10-02T08:26:34.516Z,13.20
2022-10-02T08:29:14.969Z,13.30
2022-10-02T08:31:41.960Z,13.50
2022-10-02T08:34:21.123Z,13.50
2022-10-02T08:37:11.478Z,13.50
2022-10-02T08:42:32.724Z,13.60
2022-10-02T08:51:02.142Z,13.90
2022-10-02T08:56:33.562Z,13.70
2022-10-02T08:59:31.499Z,13.60
2022-10-02T09:02:19.845Z,13.70
2022-10-02T09:05:24.068Z,13.70
2022-10-02T09:08:09.176Z,13.60
2022-10-02T09:13:23.317Z,13.90
2022-10-02T09:16:09.373Z,14.00
2022-10-02T09:18:48.863Z,13.90
2022-10-02T09:21:20.055Z,13.80
2022-10-02T09:23:56.960Z,13.70
2022-10-02T09:26:29.628Z,13.60
2022-10-02T09:29:14.299Z,13.60
2022-10-02T09:34:52.588Z,13.50
2022-10-02T09:38:07.132Z,13.50
2022-10-02T09:41:07.240Z,13.40
2022-10-02T09:43:43.620Z,13.40
2022-10-02T09:46:49.403Z,13.40
2022-10-02T09:49:22.210Z,13.60
2022-10-02T09:54:52.674Z,13.60
2022-10-02T09:57:56.957Z,13.90
2022-10-02T10:06:03.990Z,13.70
2022-10-02T10:09:09.135Z,13.60
2022-10-02T10:12:02.812Z,13.70
2022-10-02T10:14:54.401Z,13.60
2022-10-02T10:17:56.145Z,13.50
2022-10-02T10:20:51.765Z,13.50
2022-10-02T10:23:27.246Z,13.60
2022-10-02T10:26:36.321Z,13.40
2022-10-02T10:29:40.976Z,13.40
2022-10-02T10:32:28.256Z,13.40
2022-10-02T10:35:09.091Z,13.50
2022-10-02T10:38:24.230Z,13.50
2022-10-02T10:41:24.328Z,13.50
2022-10-02T10:43:57.370Z,13.60
2022-10-02T10:46:36.061Z,13.70
2022-10-02T10:49:12.255Z,13.80
2022-10-02T10:51:45.839Z,13.70
2022-10-02T10:57:22.780Z,13.80
2022-10-02T11:00:13.513Z,13.80
2022-10-02T11:03:09.428Z,13.90
2022-10-02T11:06:07.191Z,13.60
2022-10-02T11:08:49.118Z,13.80
2022-10-02T11:11:19.174Z,13.90
2022-10-02T11:14:12.725Z,13.90
2022-10-02T11:17:17.110Z,13.70
2022-10-02T11:20:02.494Z,13.60
2022-10-02T11:22:44.511Z,13.40
2022-10-02T11:25:39.166Z,13.60
2022-10-02T11:28:26.360Z,13.50
2022-10-02T11:33:43.010Z,13.50
2022-10-02T11:36:47.606Z,13.50
2022-10-02T11:39:49.929Z,13.80
2022-10-02T11:50:41.310Z,13.60
2022-10-02T11:56:25.052Z,13.90
2022-10-02T11:59:10.739Z,14.00
2022-10-02T12:23:26.224Z,13.60
2022-10-02T12:26:21.352Z,13.60
2022-10-02T12:29:12.792Z,13.70
2022-10-02T12:31:57.200Z,13.70
2022-10-02T12:34:48.782Z,13.50
2022-10-02T12:37:27.461Z,13.60
2022-10-02T12:40:00.755Z,13.70
2022-10-02T12:43:01.852Z,13.50
2022-10-02T12:45:58.697Z,13.40
2022-10-02T12:48:45.958Z,13.40
2022-10-02T13:04:29.898Z,13.10
2022-10-02T13:07:20.645Z,13.20
2022-10-02T13:10:08.569Z,13.20
2022-10-02T13:12:54.166Z,13.40
2022-10-02T13:15:37.055Z,13.30
2022-10-02T13:18:23.046Z,13.30
2022-10-02T13:21:11.411Z,13.10
2022-10-02T13:24:08.377Z,13.20
2022-10-02T13:26:56.567Z,13.20
2022-10-02T13:29:57.901Z,13.30
2022-10-02T13:32:52.204Z,13.10
2022-10-02T13:36:07.430Z,12.90
2022-10-02T13:38:43.374Z,13.00
2022-10-02T13:41:31.824Z,13.10
2022-10-02T13:44:07.983Z,13.00
2022-10-02T13:46:51.438Z,13.30
2022-10-02T13:49:31.837Z,13.40
2022-10-02T14:15:31.894Z,13.60
2022-10-02T14:18:29.268Z,13.60
2022-10-02T14:21:20.538Z,13.70
2022-10-02T14:26:54.913Z,13.20
2022-10-02T14:29:46.045Z,13.30
2022-10-02T14:32:42.716Z,13.30
2022-10-02T14:35:18.672Z,13.50
2022-10-02T14:38:03.975Z,13.50
2022-10-02T14:40:51.409Z,13.40
2022-10-02T15:41:51.515Z,12.80
2022-10-02T15:44:31.979Z,12.90
2022-10-02T15:47:01.945Z,13.00
2022-10-02T15:55:14.984Z,13.00
2022-10-02T16:03:38.182Z,13.10
2022-10-02T16:08:58.872Z,12.90
2022-10-02T16:17:09.995Z,12.90
2022-10-02T16:19:55.891Z,12.90
2022-10-02T16:22:45.864Z,12.70
2022-10-02T16:25:30.997Z,12.90
2022-10-02T16:28:22.172Z,12.90
2022-10-02T16:30:51.720Z,12.90
2022-10-02T16:33:39.856Z,12.90
2022-10-02T16:36:35.004Z,12.80
2022-10-02T16:39:20.859Z,12.90
2022-10-02T16:41:58.426Z,12.90
2022-10-02T16:45:03.012Z,13.00
2022-10-02T16:48:06.432Z,13.00
2022-10-02T16:50:45.344Z,12.90
2022-10-02T16:53:25.235Z,12.90
2022-10-02T16:56:05.930Z,12.90
2022-10-02T16:58:50.708Z,13.00
2022-10-02T17:01:33.565Z,12.90
2022-10-02T17:04:38.124Z,12.90
2022-10-02T17:07:20.010Z,12.90
2022-10-02T17:10:02.271Z,12.80
2022-10-02T17:12:44.272Z,13.00
2022-10-02T17:15:49.926Z,13.00
2022-10-02T17:18:16.868Z,13.00
2022-10-02T17:20:49.763Z,13.00
2022-10-02T17:23:42.972Z,13.00
2022-10-02T17:26:23.964Z,12.80
2022-10-02T17:29:06.044Z,12.90
2022-10-02T17:34:14.992Z,12.80
2022-10-02T17:37:10.844Z,13.00
2022-10-02T17:39:56.545Z,12.80
2022-10-02T17:42:32.672Z,12.90
2022-10-02T17:45:14.906Z,12.90
2022-10-02T17:47:48.195Z,12.80
2022-10-02T17:50:25.385Z,12.90
2022-10-02T17:53:39.160Z,12.80
2022-10-02T17:56:30.589Z,12.80
2022-10-02T17:59:17.087Z,12.70
2022-10-02T20:29:21.487Z,12.40
2022-10-02T20:31:55.197Z,12.60
2022-10-02T20:34:36.617Z,12.50
2022-10-02T20:37:13.391Z,12.30
2022-10-02T20:40:00.058Z,12.30
2022-10-02T20:42:58.268Z,12.30
2022-10-02T20:45:46.937Z,12.40
2022-10-02T20:48:49.181Z,12.40
2022-10-02T20:51:48.266Z,12.40
2022-10-02T20:59:59.303Z,12.40
2022-10-02T21:02:42.955Z,12.60
2022-10-02T21:05:39.201Z,12.70
2022-10-02T21:08:18.329Z,12.60
2022-10-02T21:11:13.890Z,12.60
2022-10-02T21:14:22.553Z,12.60
2022-10-02T21:17:13.167Z,12.60
2022-10-02T21:20:00.443Z,12.70
2022-10-02T21:22:42.176Z,12.60
2022-10-02T21:25:26.898Z,12.60
2022-10-02T21:28:24.471Z,12.60
2022-10-02T21:31:21.938Z,12.60
2022-10-02T21:34:09.298Z,12.70
2022-10-02T21:36:47.751Z,12.60
2022-10-02T21:39:58.782Z,12.70
2022-10-02T21:42:47.678Z,12.50
2022-10-02T21:45:35.779Z,12.50
2022-10-02T21:48:28.717Z,12.70
2022-10-02T21:51:33.310Z,12.40
2022-10-02T21:54:30.794Z,12.50
2022-10-02T21:57:20.371Z,12.40
2022-10-02T21:59:56.089Z,12.40
2022-10-02T22:02:47.724Z,12.40
2022-10-02T22:05:32.292Z,12.50
2022-10-02T22:08:25.855Z,12.50
2022-10-02T22:11:22.694Z,12.50
2022-10-02T22:13:54.887Z,12.60
2022-10-02T22:16:29.325Z,12.60
2022-10-02T22:19:03.873Z,12.60
2022-10-02T22:21:57.820Z,12.70
2022-10-02T22:24:46.524Z,12.70
2022-10-02T22:27:27.689Z,12.50
2022-10-02T22:32:47.333Z,12.50
2022-10-02T22:35:23.824Z,12.50
2022-10-02T22:38:05.106Z,12.50
2022-10-02T22:40:52.259Z,12.50
2022-10-02T22:43:48.389Z,12.50
2022-10-02T22:46:21.019Z,12.40
2022-10-02T22:49:01.032Z,12.40
2022-10-02T22:51:43.644Z,12.30
2022-10-02T22:54:20.780Z,12.30
2022-10-02T22:57:03.659Z,12.20
2022-10-02T22:59:55.478Z,12.20
2022-10-02T23:02:35.273Z,12.10
2022-10-02T23:05:29.433Z,12.20
2022-10-02T23:08:03.288Z,12.20
2022-10-02T23:10:51.857Z,12.20
2022-10-02T23:13:30.279Z,12.20
2022-10-02T23:16:02.621Z,12.30
2022-10-02T23:18:48.461Z,12.30
2022-10-02T23:21:25.384Z,12.40
2022-10-02T23:23:58.608Z,12.40
2022-10-02T23:26:45.432Z,12.40
2022-10-02T23:29:52.845Z,12.40
2022-10-02T23:32:32.073Z,12.50
2022-10-02T23:35:19.620Z,12.50
2022-10-02T23:37:55.292Z,12.50
2022-10-02T23:40:51.623Z,12.50
2022-10-02T23:43:36.799Z,12.50
2022-10-02T23:46:14.907Z,12.50
2022-10-02T23:48:42.919Z,12.50
2022-10-02T23:51:31.942Z,12.50
2022-10-02T23:54:25.074Z,12.40
2022-10-02T23:56:52.250Z,12.50
